SWR8YE LSZH-EHAM
Flight info
| Callsign | SWR8YE |
|---|---|
| Flight time | 0h 59m |
| Altitude | 34000 |
| Route | VEBIT T10 TORPA DCT EDOPI DCT GIVOR DCT SORAL DCT IBERA DCT BUB/N0442F300 Y28 HELEN |
| Aircraft | A320/M-SDE3FGHIRWY/LB1 |
Departure
| Time | 2026-05-05 07:25 |
|---|---|
| Airport | Zürich Airport (LSZH) |
Arrival
| Time | 2026-05-05 08:24 |
|---|---|
| Airport | Amsterdam Airport Schiphol (EHAM) |
| Time | Latitude | Longitude | Altitude | Speed | Heading |
|---|---|---|---|---|---|
| 2026-05-05 07:11 | 47.45424 | 8.55803 | 1407 ft | 0 kts | 186° |
| 2026-05-05 07:19 | 47.45441 | 8.55806 | 1416 ft | 4 kts | 184° |
| 2026-05-05 07:19 | 47.45468 | 8.55807 | 1411 ft | 4 kts | 175° |
| 2026-05-05 07:20 | 47.45493 | 8.55799 | 1411 ft | 4 kts | 149° |
| 2026-05-05 07:20 | 47.45507 | 8.55778 | 1409 ft | 1 kts | 96° |
| 2026-05-05 07:22 | 47.45505 | 8.55793 | 1413 ft | 9 kts | 96° |
| 2026-05-05 07:22 | 47.45491 | 8.55983 | 1407 ft | 21 kts | 95° |
| 2026-05-05 07:22 | 47.45480 | 8.56200 | 1407 ft | 17 kts | 83° |
| 2026-05-05 07:22 | 47.45538 | 8.56324 | 1412 ft | 13 kts | 51° |
| 2026-05-05 07:23 | 47.45589 | 8.56424 | 1414 ft | 12 kts | 66° |
| 2026-05-05 07:23 | 47.45584 | 8.56589 | 1417 ft | 18 kts | 95° |
| 2026-05-05 07:23 | 47.45574 | 8.56774 | 1423 ft | 18 kts | 96° |
| 2026-05-05 07:23 | 47.45563 | 8.56951 | 1420 ft | 16 kts | 83° |
| 2026-05-05 07:24 | 47.45616 | 8.57020 | 1424 ft | 8 kts | 6° |
| 2026-05-05 07:24 | 47.45658 | 8.57025 | 1425 ft | 2 kts | 355° |
| 2026-05-05 07:24 | 47.45662 | 8.57000 | 1425 ft | 10 kts | 283° |
| 2026-05-05 07:24 | 47.45695 | 8.56548 | 1416 ft | 83 kts | 276° |
| 2026-05-05 07:25 | 47.45778 | 8.55366 | 1404 ft | 146 kts | 276° |
| 2026-05-05 07:25 | 47.45903 | 8.53706 | 1706 ft | 168 kts | 276° |
| 2026-05-05 07:25 | 47.46032 | 8.51953 | 2383 ft | 175 kts | 276° |
| 2026-05-05 07:25 | 47.46162 | 8.50103 | 2876 ft | 190 kts | 275° |
| 2026-05-05 07:26 | 47.46165 | 8.48055 | 3165 ft | 212 kts | 252° |
| 2026-05-05 07:26 | 47.45281 | 8.46221 | 3487 ft | 233 kts | 219° |
| 2026-05-05 07:26 | 47.43981 | 8.44627 | 3961 ft | 253 kts | 222° |
| 2026-05-05 07:26 | 47.42766 | 8.42579 | 4603 ft | 267 kts | 232° |
| 2026-05-05 07:27 | 47.41675 | 8.40363 | 5390 ft | 273 kts | 234° |
| 2026-05-05 07:27 | 47.40709 | 8.37887 | 6296 ft | 278 kts | 250° |
| 2026-05-05 07:27 | 47.40263 | 8.35124 | 7145 ft | 281 kts | 257° |
| 2026-05-05 07:27 | 47.39874 | 8.32263 | 8046 ft | 283 kts | 257° |
| 2026-05-05 07:28 | 47.39495 | 8.29402 | 8882 ft | 286 kts | 257° |
| 2026-05-05 07:28 | 47.39358 | 8.26448 | 9709 ft | 293 kts | 272° |
| 2026-05-05 07:28 | 47.39537 | 8.23428 | 10333 ft | 304 kts | 272° |
| 2026-05-05 07:28 | 47.39729 | 8.20199 | 10564 ft | 327 kts | 272° |
| 2026-05-05 07:29 | 47.39816 | 8.18721 | 10644 ft | 337 kts | 272° |
| 2026-05-05 07:29 | 47.39877 | 8.17839 | 10742 ft | 340 kts | 274° |
| 2026-05-05 07:29 | 47.40121 | 8.14293 | 11226 ft | 351 kts | 272° |
| 2026-05-05 07:29 | 47.40407 | 8.09509 | 12149 ft | 356 kts | 271° |
| 2026-05-05 07:30 | 47.40612 | 8.05856 | 12873 ft | 358 kts | 271° |
| 2026-05-05 07:30 | 47.40953 | 7.99689 | 14059 ft | 362 kts | 270° |
| 2026-05-05 07:30 | 47.41161 | 7.95972 | 14703 ft | 364 kts | 271° |
| 2026-05-05 07:31 | 47.41374 | 7.92225 | 15318 ft | 368 kts | 271° |
| 2026-05-05 07:31 | 47.41893 | 7.88495 | 15889 ft | 379 kts | 287° |
| 2026-05-05 07:31 | 47.43231 | 7.85090 | 16458 ft | 391 kts | 307° |
| 2026-05-05 07:31 | 47.45263 | 7.82412 | 17005 ft | 400 kts | 319° |
| 2026-05-05 07:32 | 47.47483 | 7.79905 | 17585 ft | 403 kts | 319° |
| 2026-05-05 07:32 | 47.49730 | 7.77390 | 18174 ft | 406 kts | 320° |
| 2026-05-05 07:32 | 47.51993 | 7.74860 | 18685 ft | 410 kts | 320° |
| 2026-05-05 07:32 | 47.54275 | 7.72302 | 19201 ft | 413 kts | 320° |
| 2026-05-05 07:33 | 47.56568 | 7.69722 | 19750 ft | 414 kts | 320° |
| 2026-05-05 07:33 | 47.58868 | 7.67121 | 20297 ft | 417 kts | 320° |
| 2026-05-05 07:33 | 47.61174 | 7.64498 | 20815 ft | 419 kts | 320° |
| 2026-05-05 07:33 | 47.63493 | 7.61855 | 21320 ft | 421 kts | 320° |
| 2026-05-05 07:34 | 47.65822 | 7.59200 | 21800 ft | 424 kts | 320° |
| 2026-05-05 07:34 | 47.68172 | 7.56525 | 22301 ft | 427 kts | 320° |
| 2026-05-05 07:34 | 47.70535 | 7.53834 | 22760 ft | 429 kts | 321° |
| 2026-05-05 07:34 | 47.72913 | 7.51125 | 23197 ft | 432 kts | 321° |
| 2026-05-05 07:35 | 47.75303 | 7.48397 | 23593 ft | 435 kts | 321° |
| 2026-05-05 07:35 | 47.77710 | 7.45655 | 23932 ft | 438 kts | 322° |
| 2026-05-05 07:35 | 47.80374 | 7.43424 | 24278 ft | 443 kts | 336° |
| 2026-05-05 07:35 | 47.83252 | 7.41704 | 24615 ft | 445 kts | 337° |
| 2026-05-05 07:36 | 47.86146 | 7.39997 | 24940 ft | 448 kts | 337° |
| 2026-05-05 07:36 | 47.89005 | 7.38287 | 25259 ft | 450 kts | 336° |
| 2026-05-05 07:36 | 47.91892 | 7.36454 | 25568 ft | 452 kts | 334° |
| 2026-05-05 07:36 | 47.94775 | 7.34545 | 25901 ft | 455 kts | 334° |
| 2026-05-05 07:37 | 47.97665 | 7.32592 | 26248 ft | 457 kts | 333° |
| 2026-05-05 07:37 | 48.00572 | 7.30622 | 26598 ft | 460 kts | 333° |
| 2026-05-05 07:37 | 48.03493 | 7.28654 | 26962 ft | 461 kts | 334° |
| 2026-05-05 07:37 | 48.06431 | 7.26694 | 27278 ft | 463 kts | 334° |
| 2026-05-05 07:38 | 48.09382 | 7.24740 | 27586 ft | 466 kts | 334° |
| 2026-05-05 07:38 | 48.12355 | 7.22776 | 27853 ft | 468 kts | 334° |
| 2026-05-05 07:38 | 48.15346 | 7.20802 | 28104 ft | 470 kts | 334° |
| 2026-05-05 07:38 | 48.18344 | 7.18820 | 28357 ft | 473 kts | 334° |
| 2026-05-05 07:39 | 48.21357 | 7.16822 | 28619 ft | 475 kts | 334° |
| 2026-05-05 07:39 | 48.24386 | 7.14805 | 28867 ft | 477 kts | 333° |
| 2026-05-05 07:39 | 48.27422 | 7.12776 | 29127 ft | 478 kts | 333° |
| 2026-05-05 07:39 | 48.30467 | 7.10735 | 29357 ft | 480 kts | 333° |
| 2026-05-05 07:40 | 48.33518 | 7.08684 | 29578 ft | 481 kts | 333° |
| 2026-05-05 07:40 | 48.36433 | 7.06248 | 29891 ft | 478 kts | 325° |
| 2026-05-05 07:40 | 48.39254 | 7.03599 | 30181 ft | 477 kts | 324° |
| 2026-05-05 07:40 | 48.42074 | 7.00947 | 30453 ft | 477 kts | 324° |
| 2026-05-05 07:41 | 48.44882 | 6.98293 | 30733 ft | 477 kts | 324° |
| 2026-05-05 07:41 | 48.47689 | 6.95625 | 31072 ft | 474 kts | 323° |
| 2026-05-05 07:41 | 48.50478 | 6.92965 | 31389 ft | 473 kts | 323° |
| 2026-05-05 07:41 | 48.53217 | 6.90345 | 31678 ft | 473 kts | 323° |
| 2026-05-05 07:42 | 48.56002 | 6.87674 | 31945 ft | 474 kts | 323° |
| 2026-05-05 07:42 | 48.58782 | 6.85006 | 32243 ft | 474 kts | 323° |
| 2026-05-05 07:42 | 48.61567 | 6.82335 | 32519 ft | 474 kts | 323° |
| 2026-05-05 07:42 | 48.64347 | 6.79674 | 32770 ft | 474 kts | 322° |
| 2026-05-05 07:43 | 48.67132 | 6.77003 | 33024 ft | 473 kts | 322° |
| 2026-05-05 07:43 | 48.69917 | 6.74329 | 33285 ft | 473 kts | 322° |
| 2026-05-05 07:43 | 48.72693 | 6.71661 | 33550 ft | 473 kts | 322° |
| 2026-05-05 07:43 | 48.75476 | 6.68984 | 33808 ft | 473 kts | 322° |
| 2026-05-05 07:44 | 48.81058 | 6.63635 | 33916 ft | 474 kts | 322° |
| 2026-05-05 07:44 | 48.86653 | 6.58294 | 33915 ft | 474 kts | 322° |
| 2026-05-05 07:45 | 48.92231 | 6.52936 | 33897 ft | 473 kts | 322° |
| 2026-05-05 07:45 | 48.97745 | 6.47629 | 33899 ft | 472 kts | 322° |
| 2026-05-05 07:46 | 49.03293 | 6.42271 | 33895 ft | 472 kts | 321° |
| 2026-05-05 07:46 | 49.08828 | 6.36882 | 33895 ft | 471 kts | 321° |
| 2026-05-05 07:47 | 49.14357 | 6.31492 | 33897 ft | 471 kts | 321° |
| 2026-05-05 07:47 | 49.19918 | 6.26079 | 33913 ft | 470 kts | 321° |
| 2026-05-05 07:48 | 49.25404 | 6.20719 | 33934 ft | 470 kts | 321° |
| 2026-05-05 07:48 | 49.30885 | 6.15340 | 33902 ft | 471 kts | 321° |
| 2026-05-05 07:49 | 49.36406 | 6.09915 | 33891 ft | 472 kts | 321° |
| 2026-05-05 07:49 | 49.41921 | 6.04478 | 33897 ft | 471 kts | 321° |
| 2026-05-05 07:50 | 49.47445 | 5.99061 | 33899 ft | 470 kts | 321° |
| 2026-05-05 07:50 | 49.52973 | 5.93642 | 33898 ft | 469 kts | 321° |
| 2026-05-05 07:51 | 49.58457 | 5.88242 | 33894 ft | 469 kts | 321° |
| 2026-05-05 07:51 | 49.63956 | 5.82813 | 33902 ft | 469 kts | 321° |
| 2026-05-05 07:52 | 49.69265 | 5.76972 | 33884 ft | 467 kts | 316° |
| 2026-05-05 07:52 | 49.74319 | 5.70795 | 33867 ft | 466 kts | 315° |
| 2026-05-05 07:53 | 49.79417 | 5.64542 | 33881 ft | 468 kts | 316° |
| 2026-05-05 07:53 | 49.84582 | 5.58391 | 33887 ft | 469 kts | 316° |
| 2026-05-05 07:54 | 49.89775 | 5.52270 | 33895 ft | 468 kts | 316° |
| 2026-05-05 07:54 | 49.94949 | 5.46119 | 33906 ft | 467 kts | 316° |
| 2026-05-05 07:55 | 50.00104 | 5.39949 | 33877 ft | 469 kts | 316° |
| 2026-05-05 07:55 | 50.05233 | 5.33776 | 33868 ft | 470 kts | 316° |
| 2026-05-05 07:56 | 50.10413 | 5.27538 | 33881 ft | 471 kts | 316° |
| 2026-05-05 07:56 | 50.15591 | 5.21293 | 33893 ft | 470 kts | 316° |
| 2026-05-05 07:57 | 50.20771 | 5.15038 | 33895 ft | 470 kts | 316° |
| 2026-05-05 07:57 | 50.25928 | 5.08786 | 33891 ft | 469 kts | 316° |
| 2026-05-05 07:58 | 50.31050 | 5.02542 | 33902 ft | 469 kts | 316° |
| 2026-05-05 07:58 | 50.36189 | 4.96271 | 33583 ft | 467 kts | 316° |
| 2026-05-05 07:59 | 50.38750 | 4.93144 | 33304 ft | 466 kts | 316° |
| 2026-05-05 07:59 | 50.41301 | 4.90022 | 33036 ft | 466 kts | 316° |
| 2026-05-05 07:59 | 50.43856 | 4.86892 | 32765 ft | 465 kts | 316° |
| 2026-05-05 07:59 | 50.46408 | 4.83758 | 32491 ft | 465 kts | 317° |
| 2026-05-05 08:00 | 50.48953 | 4.80626 | 32227 ft | 465 kts | 317° |
| 2026-05-05 08:00 | 50.51500 | 4.77483 | 31975 ft | 465 kts | 317° |
| 2026-05-05 08:00 | 50.54047 | 4.74338 | 31710 ft | 465 kts | 317° |
| 2026-05-05 08:00 | 50.56586 | 4.71199 | 31455 ft | 464 kts | 317° |
| 2026-05-05 08:01 | 50.59125 | 4.68061 | 31206 ft | 463 kts | 317° |
| 2026-05-05 08:01 | 50.61656 | 4.64933 | 30959 ft | 463 kts | 317° |
| 2026-05-05 08:01 | 50.64188 | 4.61800 | 30712 ft | 462 kts | 318° |
| 2026-05-05 08:01 | 50.66714 | 4.58666 | 30463 ft | 461 kts | 318° |
| 2026-05-05 08:02 | 50.69236 | 4.55525 | 30216 ft | 461 kts | 318° |
| 2026-05-05 08:02 | 50.71758 | 4.52381 | 29966 ft | 462 kts | 318° |
| 2026-05-05 08:02 | 50.74286 | 4.49226 | 29680 ft | 462 kts | 318° |
| 2026-05-05 08:02 | 50.76804 | 4.46081 | 29393 ft | 462 kts | 318° |
| 2026-05-05 08:03 | 50.79321 | 4.42930 | 29110 ft | 460 kts | 318° |
| 2026-05-05 08:03 | 50.81821 | 4.39801 | 28838 ft | 457 kts | 319° |
| 2026-05-05 08:03 | 50.84307 | 4.36687 | 28558 ft | 455 kts | 319° |
| 2026-05-05 08:03 | 50.86778 | 4.33588 | 28283 ft | 453 kts | 319° |
| 2026-05-05 08:04 | 50.89243 | 4.30491 | 28011 ft | 451 kts | 319° |
| 2026-05-05 08:04 | 50.91699 | 4.27403 | 27741 ft | 449 kts | 319° |
| 2026-05-05 08:04 | 50.94140 | 4.24333 | 27475 ft | 448 kts | 319° |
| 2026-05-05 08:04 | 50.96578 | 4.21263 | 27210 ft | 446 kts | 319° |
| 2026-05-05 08:05 | 50.99007 | 4.18201 | 26944 ft | 445 kts | 319° |
| 2026-05-05 08:05 | 51.01420 | 4.15154 | 26689 ft | 443 kts | 319° |
| 2026-05-05 08:05 | 51.03822 | 4.12110 | 26459 ft | 441 kts | 319° |
| 2026-05-05 08:05 | 51.06220 | 4.09067 | 26198 ft | 440 kts | 319° |
| 2026-05-05 08:06 | 51.08613 | 4.06023 | 25942 ft | 438 kts | 319° |
| 2026-05-05 08:06 | 51.10987 | 4.03000 | 25693 ft | 437 kts | 319° |
| 2026-05-05 08:06 | 51.13331 | 4.00013 | 25447 ft | 435 kts | 319° |
| 2026-05-05 08:06 | 51.15689 | 3.97004 | 25201 ft | 434 kts | 319° |
| 2026-05-05 08:07 | 51.18039 | 3.94002 | 24957 ft | 433 kts | 319° |
| 2026-05-05 08:07 | 51.20449 | 3.91107 | 24703 ft | 432 kts | 326° |
| 2026-05-05 08:07 | 51.23087 | 3.88865 | 24128 ft | 430 kts | 336° |
| 2026-05-05 08:07 | 51.25934 | 3.87440 | 23521 ft | 429 kts | 347° |
| 2026-05-05 08:08 | 51.28889 | 3.86862 | 22917 ft | 426 kts | 357° |
| 2026-05-05 08:08 | 51.31851 | 3.86805 | 22363 ft | 424 kts | 358° |
| 2026-05-05 08:08 | 51.34789 | 3.86739 | 21809 ft | 421 kts | 358° |
| 2026-05-05 08:08 | 51.37709 | 3.86657 | 21254 ft | 417 kts | 358° |
| 2026-05-05 08:09 | 51.40600 | 3.86574 | 20698 ft | 415 kts | 358° |
| 2026-05-05 08:09 | 51.43486 | 3.86492 | 20160 ft | 412 kts | 359° |
| 2026-05-05 08:09 | 51.46345 | 3.86418 | 19612 ft | 409 kts | 359° |
| 2026-05-05 08:09 | 51.49183 | 3.86354 | 19085 ft | 407 kts | 359° |
| 2026-05-05 08:10 | 51.51975 | 3.86295 | 18558 ft | 405 kts | 359° |
| 2026-05-05 08:10 | 51.54784 | 3.86234 | 17989 ft | 403 kts | 359° |
| 2026-05-05 08:10 | 51.57573 | 3.86170 | 17454 ft | 399 kts | 359° |
| 2026-05-05 08:10 | 51.60341 | 3.86103 | 16931 ft | 395 kts | 359° |
| 2026-05-05 08:11 | 51.63111 | 3.86036 | 16408 ft | 392 kts | 359° |
| 2026-05-05 08:11 | 51.65799 | 3.85973 | 15898 ft | 388 kts | 359° |
| 2026-05-05 08:11 | 51.68484 | 3.85973 | 15387 ft | 385 kts | 4° |
| 2026-05-05 08:11 | 51.71107 | 3.86700 | 14887 ft | 381 kts | 17° |
| 2026-05-05 08:12 | 51.73538 | 3.88301 | 14388 ft | 377 kts | 29° |
| 2026-05-05 08:12 | 51.75676 | 3.90694 | 13890 ft | 374 kts | 40° |
| 2026-05-05 08:12 | 51.77601 | 3.93478 | 13360 ft | 370 kts | 41° |
| 2026-05-05 08:12 | 51.79507 | 3.96236 | 12861 ft | 365 kts | 41° |
| 2026-05-05 08:13 | 51.81389 | 3.98953 | 12388 ft | 360 kts | 41° |
| 2026-05-05 08:13 | 51.83250 | 4.01631 | 11910 ft | 355 kts | 41° |
| 2026-05-05 08:13 | 51.85088 | 4.04279 | 11444 ft | 351 kts | 41° |
| 2026-05-05 08:13 | 51.86898 | 4.06894 | 10981 ft | 348 kts | 41° |
| 2026-05-05 08:14 | 51.88705 | 4.09480 | 10604 ft | 342 kts | 38° |
| 2026-05-05 08:14 | 51.90012 | 4.10922 | 10513 ft | 331 kts | 28° |
| 2026-05-05 08:14 | 51.92054 | 4.12308 | 10390 ft | 317 kts | 15° |
| 2026-05-05 08:14 | 51.94183 | 4.12868 | 10270 ft | 304 kts | 1° |
| 2026-05-05 08:15 | 51.96250 | 4.12727 | 10145 ft | 292 kts | 355° |
| 2026-05-05 08:15 | 51.98257 | 4.12501 | 9998 ft | 285 kts | 355° |
| 2026-05-05 08:15 | 52.00246 | 4.12286 | 9918 ft | 286 kts | 355° |
| 2026-05-05 08:15 | 52.02245 | 4.12074 | 9491 ft | 288 kts | 355° |
| 2026-05-05 08:16 | 52.04235 | 4.11864 | 9139 ft | 285 kts | 355° |
| 2026-05-05 08:16 | 52.06215 | 4.11890 | 8722 ft | 284 kts | 7° |
| 2026-05-05 08:16 | 52.08109 | 4.12717 | 8356 ft | 282 kts | 22° |
| 2026-05-05 08:16 | 52.09887 | 4.14062 | 7972 ft | 280 kts | 24° |
| 2026-05-05 08:17 | 52.11626 | 4.15388 | 7611 ft | 279 kts | 24° |
| 2026-05-05 08:17 | 52.13378 | 4.16717 | 7238 ft | 277 kts | 24° |
| 2026-05-05 08:17 | 52.14954 | 4.18402 | 7078 ft | 267 kts | 43° |
| 2026-05-05 08:17 | 52.16007 | 4.20870 | 6701 ft | 267 kts | 68° |
| 2026-05-05 08:18 | 52.16506 | 4.23761 | 6348 ft | 265 kts | 76° |
| 2026-05-05 08:18 | 52.16943 | 4.26661 | 5985 ft | 262 kts | 75° |
| 2026-05-05 08:18 | 52.17370 | 4.29522 | 5645 ft | 258 kts | 75° |
| 2026-05-05 08:18 | 52.17787 | 4.32333 | 5316 ft | 250 kts | 75° |
| 2026-05-05 08:19 | 52.18190 | 4.35043 | 4989 ft | 241 kts | 75° |
| 2026-05-05 08:19 | 52.18577 | 4.37654 | 4686 ft | 233 kts | 75° |
| 2026-05-05 08:19 | 52.18951 | 4.40176 | 4374 ft | 227 kts | 75° |
| 2026-05-05 08:19 | 52.19317 | 4.42661 | 4089 ft | 224 kts | 75° |
| 2026-05-05 08:20 | 52.19677 | 4.45110 | 3807 ft | 221 kts | 74° |
| 2026-05-05 08:20 | 52.20037 | 4.47535 | 3520 ft | 219 kts | 73° |
| 2026-05-05 08:20 | 52.20393 | 4.49940 | 3237 ft | 217 kts | 73° |
| 2026-05-05 08:20 | 52.20765 | 4.52306 | 2944 ft | 214 kts | 67° |
| 2026-05-05 08:21 | 52.21457 | 4.54405 | 2657 ft | 208 kts | 55° |
| 2026-05-05 08:21 | 52.22228 | 4.56381 | 2394 ft | 205 kts | 56° |
| 2026-05-05 08:21 | 52.22987 | 4.58340 | 2120 ft | 203 kts | 56° |
| 2026-05-05 08:21 | 52.23725 | 4.60249 | 1994 ft | 194 kts | 57° |
| 2026-05-05 08:22 | 52.24425 | 4.62074 | 1815 ft | 189 kts | 57° |
| 2026-05-05 08:22 | 52.25104 | 4.63844 | 1492 ft | 176 kts | 57° |
| 2026-05-05 08:22 | 52.25722 | 4.65449 | 1219 ft | 158 kts | 56° |
| 2026-05-05 08:22 | 52.26276 | 4.66887 | 1024 ft | 141 kts | 57° |
| 2026-05-05 08:23 | 52.26777 | 4.68185 | 825 ft | 135 kts | 56° |
| 2026-05-05 08:23 | 52.27274 | 4.69471 | 651 ft | 132 kts | 55° |
| 2026-05-05 08:23 | 52.27758 | 4.70722 | 455 ft | 131 kts | 56° |
| 2026-05-05 08:23 | 52.28237 | 4.71976 | 282 ft | 129 kts | 53° |
| 2026-05-05 08:24 | 52.28718 | 4.73227 | 115 ft | 129 kts | 54° |
| 2026-05-05 08:24 | 52.29188 | 4.74449 | 4 ft | 119 kts | 54° |
| 2026-05-05 08:24 | 52.29547 | 4.75377 | -2 ft | 62 kts | 58° |
| 2026-05-05 08:24 | 52.29689 | 4.75715 | -2 ft | 29 kts | 40° |
| 2026-05-05 08:25 | 52.29844 | 4.75859 | -2 ft | 24 kts | 27° |
| 2026-05-05 08:25 | 52.29952 | 4.75950 | -1 ft | 15 kts | 28° |
| 2026-05-05 08:25 | 52.30023 | 4.76069 | -1 ft | 15 kts | 58° |
| 2026-05-05 08:25 | 52.30082 | 4.76226 | -1 ft | 17 kts | 58° |
| 2026-05-05 08:26 | 52.30167 | 4.76272 | -1 ft | 13 kts | 340° |
| 2026-05-05 08:26 | 52.30231 | 4.76353 | -1 ft | 13 kts | 60° |
| 2026-05-05 08:26 | 52.30283 | 4.76490 | -1 ft | 15 kts | 56° |
| 2026-05-05 08:26 | 52.30375 | 4.76499 | -1 ft | 16 kts | 327° |
| 2026-05-05 08:27 | 52.30462 | 4.76408 | -1 ft | 11 kts | 328° |
| 2026-05-05 08:27 | 52.30516 | 4.76355 | -1 ft | 9 kts | 329° |
| 2026-05-05 08:27 | 52.30529 | 4.76307 | -1 ft | 4 kts | 248° |
| 2026-05-05 08:27 | 52.30516 | 4.76273 | -1 ft | 3 kts | 239° |
| 2026-05-05 08:28 | 52.30509 | 4.76254 | -1 ft | 0 kts | 238° |